sensor_id;sensor_type;location;lat;lon;timestamp;P1;durP1;ratioP1;P2;durP2;ratioP2
10596;SDS011;5346;48.766;8.674;2023-10-09T00:02:23;22.42;;;5.57;;
10596;SDS011;5346;48.766;8.674;2023-10-09T00:04:51;23.92;;;5.18;;
10596;SDS011;5346;48.766;8.674;2023-10-09T00:07:25;26.73;;;5.93;;
10596;SDS011;5346;48.766;8.674;2023-10-09T00:10:01;25.27;;;5.40;;
10596;SDS011;5346;48.766;8.674;2023-10-09T00:12:45;29.45;;;5.50;;
10596;SDS011;5346;48.766;8.674;2023-10-09T00:15:22;19.73;;;4.70;;
10596;SDS011;5346;48.766;8.674;2023-10-09T00:17:54;22.48;;;5.18;;
10596;SDS011;5346;48.766;8.674;2023-10-09T00:20:35;22.33;;;5.60;;
10596;SDS011;5346;48.766;8.674;2023-10-09T00:23:09;21.88;;;5.00;;
10596;SDS011;5346;48.766;8.674;2023-10-09T00:25:49;21.17;;;4.47;;
10596;SDS011;5346;48.766;8.674;2023-10-09T00:28:41;15.95;;;4.60;;
10596;SDS011;5346;48.766;8.674;2023-10-09T00:31:20;19.13;;;4.65;;
10596;SDS011;5346;48.766;8.674;2023-10-09T00:34:04;24.83;;;4.93;;
10596;SDS011;5346;48.766;8.674;2023-10-09T00:36:40;28.80;;;4.90;;
10596;SDS011;5346;48.766;8.674;2023-10-09T00:39:18;24.58;;;4.35;;
10596;SDS011;5346;48.766;8.674;2023-10-09T00:42:15;18.50;;;4.32;;
10596;SDS011;5346;48.766;8.674;2023-10-09T00:44:54;21.38;;;4.75;;
10596;SDS011;5346;48.766;8.674;2023-10-09T00:47:29;23.50;;;4.20;;
10596;SDS011;5346;48.766;8.674;2023-10-09T00:50:07;19.30;;;5.07;;
10596;SDS011;5346;48.766;8.674;2023-10-09T00:52:49;21.95;;;4.55;;
10596;SDS011;5346;48.766;8.674;2023-10-09T00:55:27;21.02;;;4.65;;
10596;SDS011;5346;48.766;8.674;2023-10-09T00:58:10;25.75;;;4.20;;
10596;SDS011;5346;48.766;8.674;2023-10-09T01:00:48;20.42;;;4.70;;
10596;SDS011;5346;48.766;8.674;2023-10-09T01:03:31;22.42;;;4.82;;
10596;SDS011;5346;48.766;8.674;2023-10-09T01:06:01;22.85;;;4.53;;
10596;SDS011;5346;48.766;8.674;2023-10-09T01:08:42;19.27;;;4.35;;
10596;SDS011;5346;48.766;8.674;2023-10-09T01:11:20;19.60;;;4.32;;
10596;SDS011;5346;48.766;8.674;2023-10-09T01:13:56;21.42;;;4.20;;
10596;SDS011;5346;48.766;8.674;2023-10-09T01:16:33;22.77;;;4.25;;
10596;SDS011;5346;48.766;8.674;2023-10-09T01:19:08;22.95;;;4.45;;
10596;SDS011;5346;48.766;8.674;2023-10-09T01:21:58;22.15;;;4.80;;
10596;SDS011;5346;48.766;8.674;2023-10-09T01:24:38;17.52;;;3.80;;
10596;SDS011;5346;48.766;8.674;2023-10-09T01:27:13;18.10;;;4.47;;
10596;SDS011;5346;48.766;8.674;2023-10-09T01:29:48;22.25;;;4.07;;
10596;SDS011;5346;48.766;8.674;2023-10-09T01:32:25;17.40;;;4.20;;
10596;SDS011;5346;48.766;8.674;2023-10-09T01:35:00;21.42;;;4.18;;
10596;SDS011;5346;48.766;8.674;2023-10-09T01:37:28;21.80;;;4.45;;
10596;SDS011;5346;48.766;8.674;2023-10-09T01:40:03;16.40;;;4.25;;
10596;SDS011;5346;48.766;8.674;2023-10-09T01:42:53;20.45;;;3.33;;
10596;SDS011;5346;48.766;8.674;2023-10-09T01:45:29;16.83;;;3.95;;
10596;SDS011;5346;48.766;8.674;2023-10-09T01:48:09;17.65;;;4.78;;
10596;SDS011;5346;48.766;8.674;2023-10-09T01:50:45;19.00;;;3.55;;
10596;SDS011;5346;48.766;8.674;2023-10-09T01:53:22;25.27;;;4.28;;
10596;SDS011;5346;48.766;8.674;2023-10-09T01:56:08;17.77;;;4.57;;
10596;SDS011;5346;48.766;8.674;2023-10-09T01:58:51;15.55;;;3.58;;
10596;SDS011;5346;48.766;8.674;2023-10-09T02:01:30;15.23;;;3.67;;
10596;SDS011;5346;48.766;8.674;2023-10-09T02:04:05;21.23;;;4.15;;
10596;SDS011;5346;48.766;8.674;2023-10-09T02:06:48;18.77;;;3.83;;
10596;SDS011;5346;48.766;8.674;2023-10-09T02:09:26;20.77;;;3.85;;
10596;SDS011;5346;48.766;8.674;2023-10-09T02:11:58;12.43;;;4.07;;
10596;SDS011;5346;48.766;8.674;2023-10-09T02:14:34;18.30;;;3.95;;
10596;SDS011;5346;48.766;8.674;2023-10-09T02:17:14;17.40;;;3.95;;
10596;SDS011;5346;48.766;8.674;2023-10-09T02:19:52;16.77;;;4.03;;
10596;SDS011;5346;48.766;8.674;2023-10-09T02:22:27;11.13;;;3.05;;
10596;SDS011;5346;48.766;8.674;2023-10-09T02:25:01;18.65;;;4.50;;
10596;SDS011;5346;48.766;8.674;2023-10-09T02:27:38;18.88;;;4.25;;
10596;SDS011;5346;48.766;8.674;2023-10-09T02:30:26;12.80;;;3.60;;
10596;SDS011;5346;48.766;8.674;2023-10-09T02:33:01;19.25;;;4.07;;
10596;SDS011;5346;48.766;8.674;2023-10-09T02:35:42;15.40;;;4.00;;
10596;SDS011;5346;48.766;8.674;2023-10-09T02:38:17;18.38;;;3.90;;
10596;SDS011;5346;48.766;8.674;2023-10-09T02:40:56;15.20;;;3.00;;
10596;SDS011;5346;48.766;8.674;2023-10-09T02:43:36;18.45;;;3.63;;
10596;SDS011;5346;48.766;8.674;2023-10-09T02:46:14;20.98;;;3.92;;
10596;SDS011;5346;48.766;8.674;2023-10-09T02:48:54;17.10;;;4.07;;
10596;SDS011;5346;48.766;8.674;2023-10-09T02:51:27;21.83;;;3.97;;
10596;SDS011;5346;48.766;8.674;2023-10-09T02:54:01;14.13;;;3.80;;
10596;SDS011;5346;48.766;8.674;2023-10-09T02:56:51;23.45;;;4.38;;
10596;SDS011;5346;48.766;8.674;2023-10-09T02:59:49;17.15;;;4.03;;
10596;SDS011;5346;48.766;8.674;2023-10-09T03:02:32;21.70;;;4.35;;
10596;SDS011;5346;48.766;8.674;2023-10-09T03:05:09;21.90;;;5.88;;
10596;SDS011;5346;48.766;8.674;2023-10-09T03:07:39;25.65;;;5.18;;
10596;SDS011;5346;48.766;8.674;2023-10-09T03:10:13;24.45;;;6.10;;
10596;SDS011;5346;48.766;8.674;2023-10-09T03:12:48;28.55;;;4.93;;
10596;SDS011;5346;48.766;8.674;2023-10-09T03:15:27;19.73;;;4.38;;
10596;SDS011;5346;48.766;8.674;2023-10-09T03:18:02;18.90;;;4.55;;
10596;SDS011;5346;48.766;8.674;2023-10-09T03:20:37;29.02;;;4.45;;
10596;SDS011;5346;48.766;8.674;2023-10-09T03:23:07;22.92;;;5.05;;
10596;SDS011;5346;48.766;8.674;2023-10-09T03:25:45;26.42;;;4.88;;
10596;SDS011;5346;48.766;8.674;2023-10-09T03:28:13;23.48;;;4.45;;
10596;SDS011;5346;48.766;8.674;2023-10-09T03:30:48;25.95;;;5.47;;
10596;SDS011;5346;48.766;8.674;2023-10-09T03:33:17;27.58;;;4.90;;
10596;SDS011;5346;48.766;8.674;2023-10-09T03:35:52;29.63;;;4.85;;
10596;SDS011;5346;48.766;8.674;2023-10-09T03:38:20;24.02;;;5.03;;
10596;SDS011;5346;48.766;8.674;2023-10-09T03:40:54;21.27;;;4.60;;
10596;SDS011;5346;48.766;8.674;2023-10-09T03:43:22;22.60;;;5.30;;
10596;SDS011;5346;48.766;8.674;2023-10-09T03:45:58;22.92;;;5.32;;
10596;SDS011;5346;48.766;8.674;2023-10-09T03:48:30;20.73;;;4.55;;
10596;SDS011;5346;48.766;8.674;2023-10-09T03:51:09;21.60;;;4.20;;
10596;SDS011;5346;48.766;8.674;2023-10-09T03:53:48;20.95;;;4.93;;
10596;SDS011;5346;48.766;8.674;2023-10-09T03:56:25;28.15;;;5.05;;
10596;SDS011;5346;48.766;8.674;2023-10-09T03:58:53;24.90;;;4.47;;
10596;SDS011;5346;48.766;8.674;2023-10-09T04:01:27;17.73;;;4.65;;
10596;SDS011;5346;48.766;8.674;2023-10-09T04:04:02;15.98;;;4.57;;
10596;SDS011;5346;48.766;8.674;2023-10-09T04:06:41;17.20;;;3.88;;
10596;SDS011;5346;48.766;8.674;2023-10-09T04:09:15;17.42;;;4.35;;
10596;SDS011;5346;48.766;8.674;2023-10-09T04:11:46;25.80;;;4.10;;
10596;SDS011;5346;48.766;8.674;2023-10-09T04:14:30;30.25;;;5.03;;
10596;SDS011;5346;48.766;8.674;2023-10-09T04:17:01;18.70;;;4.50;;
10596;SDS011;5346;48.766;8.674;2023-10-09T04:19:58;23.40;;;4.30;;
10596;SDS011;5346;48.766;8.674;2023-10-09T04:22:42;21.48;;;4.53;;
10596;SDS011;5346;48.766;8.674;2023-10-09T04:25:35;17.70;;;4.57;;
10596;SDS011;5346;48.766;8.674;2023-10-09T04:28:16;24.15;;;4.95;;
10596;SDS011;5346;48.766;8.674;2023-10-09T04:30:47;31.08;;;4.40;;
10596;SDS011;5346;48.766;8.674;2023-10-09T04:33:28;18.35;;;3.97;;
10596;SDS011;5346;48.766;8.674;2023-10-09T04:36:03;20.00;;;4.20;;
10596;SDS011;5346;48.766;8.674;2023-10-09T04:38:54;17.67;;;4.25;;
10596;SDS011;5346;48.766;8.674;2023-10-09T04:41:40;19.25;;;5.07;;
10596;SDS011;5346;48.766;8.674;2023-10-09T04:44:29;14.77;;;4.13;;
10596;SDS011;5346;48.766;8.674;2023-10-09T04:47:03;20.38;;;4.05;;
10596;SDS011;5346;48.766;8.674;2023-10-09T04:49:43;22.30;;;4.82;;
10596;SDS011;5346;48.766;8.674;2023-10-09T04:52:32;15.60;;;3.80;;
10596;SDS011;5346;48.766;8.674;2023-10-09T04:55:00;15.43;;;3.83;;
10596;SDS011;5346;48.766;8.674;2023-10-09T04:57:44;15.65;;;4.85;;
10596;SDS011;5346;48.766;8.674;2023-10-09T05:00:17;19.17;;;4.10;;
10596;SDS011;5346;48.766;8.674;2023-10-09T05:03:03;18.35;;;3.72;;
10596;SDS011;5346;48.766;8.674;2023-10-09T05:05:44;19.33;;;4.18;;
10596;SDS011;5346;48.766;8.674;2023-10-09T05:08:18;17.58;;;4.25;;
10596;SDS011;5346;48.766;8.674;2023-10-09T05:10:48;15.02;;;3.78;;
10596;SDS011;5346;48.766;8.674;2023-10-09T05:13:51;18.25;;;3.78;;
10596;SDS011;5346;48.766;8.674;2023-10-09T05:16:49;17.42;;;4.25;;
10596;SDS011;5346;48.766;8.674;2023-10-09T05:19:22;20.95;;;3.95;;
10596;SDS011;5346;48.766;8.674;2023-10-09T05:22:22;15.75;;;4.03;;
10596;SDS011;5346;48.766;8.674;2023-10-09T05:25:09;14.63;;;3.90;;
10596;SDS011;5346;48.766;8.674;2023-10-09T05:27:44;18.17;;;3.72;;
10596;SDS011;5346;48.766;8.674;2023-10-09T05:30:23;19.73;;;4.10;;
10596;SDS011;5346;48.766;8.674;2023-10-09T05:33:01;14.35;;;3.60;;
10596;SDS011;5346;48.766;8.674;2023-10-09T05:35:56;22.35;;;4.45;;
10596;SDS011;5346;48.766;8.674;2023-10-09T05:38:47;24.10;;;4.13;;
10596;SDS011;5346;48.766;8.674;2023-10-09T05:41:31;19.63;;;3.80;;
10596;SDS011;5346;48.766;8.674;2023-10-09T05:44:18;16.55;;;4.00;;
10596;SDS011;5346;48.766;8.674;2023-10-09T05:47:12;19.80;;;4.30;;
10596;SDS011;5346;48.766;8.674;2023-10-09T05:49:58;12.48;;;3.85;;
10596;SDS011;5346;48.766;8.674;2023-10-09T05:52:55;17.92;;;4.13;;
10596;SDS011;5346;48.766;8.674;2023-10-09T05:55:39;13.50;;;3.80;;
10596;SDS011;5346;48.766;8.674;2023-10-09T05:58:26;17.73;;;3.78;;
10596;SDS011;5346;48.766;8.674;2023-10-09T06:01:20;16.27;;;3.35;;
10596;SDS011;5346;48.766;8.674;2023-10-09T06:04:13;14.18;;;3.40;;
10596;SDS011;5346;48.766;8.674;2023-10-09T06:07:06;15.52;;;3.85;;
10596;SDS011;5346;48.766;8.674;2023-10-09T06:09:53;16.52;;;3.90;;
10596;SDS011;5346;48.766;8.674;2023-10-09T06:12:31;24.58;;;5.20;;
10596;SDS011;5346;48.766;8.674;2023-10-09T06:15:06;21.13;;;4.57;;
10596;SDS011;5346;48.766;8.674;2023-10-09T06:18:06;23.08;;;4.10;;
10596;SDS011;5346;48.766;8.674;2023-10-09T06:20:55;18.20;;;3.83;;
10596;SDS011;5346;48.766;8.674;2023-10-09T06:24:05;27.58;;;4.03;;
10596;SDS011;5346;48.766;8.674;2023-10-09T06:26:45;16.42;;;3.80;;
10596;SDS011;5346;48.766;8.674;2023-10-09T06:29:31;19.08;;;4.68;;
10596;SDS011;5346;48.766;8.674;2023-10-09T06:32:11;14.85;;;4.20;;
10596;SDS011;5346;48.766;8.674;2023-10-09T06:34:47;18.08;;;4.00;;
10596;SDS011;5346;48.766;8.674;2023-10-09T06:37:54;20.52;;;4.32;;
10596;SDS011;5346;48.766;8.674;2023-10-09T06:40:37;28.23;;;4.30;;
10596;SDS011;5346;48.766;8.674;2023-10-09T06:43:34;27.55;;;4.70;;
10596;SDS011;5346;48.766;8.674;2023-10-09T06:46:03;27.92;;;4.22;;
10596;SDS011;5346;48.766;8.674;2023-10-09T06:49:19;23.67;;;4.28;;
10596;SDS011;5346;48.766;8.674;2023-10-09T06:52:05;26.13;;;4.43;;
10596;SDS011;5346;48.766;8.674;2023-10-09T06:54:48;25.20;;;4.55;;
10596;SDS011;5346;48.766;8.674;2023-10-09T06:57:23;20.15;;;4.75;;
10596;SDS011;5346;48.766;8.674;2023-10-09T07:00:12;18.88;;;4.43;;
10596;SDS011;5346;48.766;8.674;2023-10-09T07:03:11;21.50;;;4.00;;
10596;SDS011;5346;48.766;8.674;2023-10-09T07:05:39;23.30;;;5.28;;
10596;SDS011;5346;48.766;8.674;2023-10-09T07:08:32;30.65;;;5.00;;
10596;SDS011;5346;48.766;8.674;2023-10-09T07:11:10;22.35;;;4.97;;
10596;SDS011;5346;48.766;8.674;2023-10-09T07:14:20;22.27;;;4.65;;
10596;SDS011;5346;48.766;8.674;2023-10-09T07:17:10;26.60;;;5.20;;
10596;SDS011;5346;48.766;8.674;2023-10-09T07:20:09;23.42;;;4.78;;
10596;SDS011;5346;48.766;8.674;2023-10-09T07:22:47;34.42;;;5.75;;
10596;SDS011;5346;48.766;8.674;2023-10-09T07:25:24;27.40;;;5.00;;
10596;SDS011;5346;48.766;8.674;2023-10-09T07:28:13;32.40;;;5.43;;
10596;SDS011;5346;48.766;8.674;2023-10-09T07:31:19;36.13;;;5.55;;
10596;SDS011;5346;48.766;8.674;2023-10-09T07:34:15;32.45;;;6.70;;
10596;SDS011;5346;48.766;8.674;2023-10-09T07:37:05;25.75;;;4.85;;
10596;SDS011;5346;48.766;8.674;2023-10-09T07:39:40;25.33;;;5.32;;
10596;SDS011;5346;48.766;8.674;2023-10-09T07:42:16;33.47;;;5.20;;
10596;SDS011;5346;48.766;8.674;2023-10-09T07:45:07;25.25;;;5.63;;
10596;SDS011;5346;48.766;8.674;2023-10-09T07:47:58;26.08;;;5.70;;
10596;SDS011;5346;48.766;8.674;2023-10-09T07:50:38;27.70;;;5.32;;
10596;SDS011;5346;48.766;8.674;2023-10-09T07:53:21;31.08;;;6.30;;
10596;SDS011;5346;48.766;8.674;2023-10-09T07:55:53;35.15;;;5.25;;
10596;SDS011;5346;48.766;8.674;2023-10-09T07:58:36;33.55;;;5.88;;
10596;SDS011;5346;48.766;8.674;2023-10-09T08:01:19;24.15;;;5.15;;
10596;SDS011;5346;48.766;8.674;2023-10-09T08:04:10;32.85;;;6.22;;
10596;SDS011;5346;48.766;8.674;2023-10-09T08:06:54;31.02;;;4.93;;
10596;SDS011;5346;48.766;8.674;2023-10-09T08:09:44;41.00;;;5.60;;
10596;SDS011;5346;48.766;8.674;2023-10-09T08:12:42;34.40;;;5.30;;
10596;SDS011;5346;48.766;8.674;2023-10-09T08:15:16;35.13;;;6.38;;
10596;SDS011;5346;48.766;8.674;2023-10-09T08:17:52;26.75;;;5.38;;
10596;SDS011;5346;48.766;8.674;2023-10-09T08:20:27;28.13;;;5.22;;
10596;SDS011;5346;48.766;8.674;2023-10-09T08:23:03;31.02;;;5.53;;
10596;SDS011;5346;48.766;8.674;2023-10-09T08:26:00;39.38;;;6.43;;
10596;SDS011;5346;48.766;8.674;2023-10-09T08:28:45;39.60;;;5.53;;
10596;SDS011;5346;48.766;8.674;2023-10-09T08:31:47;39.17;;;5.80;;
10596;SDS011;5346;48.766;8.674;2023-10-09T08:34:50;28.45;;;5.18;;
10596;SDS011;5346;48.766;8.674;2023-10-09T08:37:36;25.20;;;5.15;;
10596;SDS011;5346;48.766;8.674;2023-10-09T08:40:08;23.45;;;5.10;;
10596;SDS011;5346;48.766;8.674;2023-10-09T08:42:52;26.33;;;4.97;;
10596;SDS011;5346;48.766;8.674;2023-10-09T08:45:21;27.05;;;4.90;;
10596;SDS011;5346;48.766;8.674;2023-10-09T08:48:00;25.05;;;4.43;;
10596;SDS011;5346;48.766;8.674;2023-10-09T08:50:32;28.15;;;4.72;;
10596;SDS011;5346;48.766;8.674;2023-10-09T08:53:09;27.55;;;5.22;;
10596;SDS011;5346;48.766;8.674;2023-10-09T08:55:37;24.63;;;4.60;;
10596;SDS011;5346;48.766;8.674;2023-10-09T08:58:07;24.85;;;4.22;;
10596;SDS011;5346;48.766;8.674;2023-10-09T09:00:57;19.85;;;4.55;;
10596;SDS011;5346;48.766;8.674;2023-10-09T09:03:40;14.27;;;3.88;;
10596;SDS011;5346;48.766;8.674;2023-10-09T09:06:18;20.02;;;4.53;;
10596;SDS011;5346;48.766;8.674;2023-10-09T09:08:53;23.80;;;4.40;;
10596;SDS011;5346;48.766;8.674;2023-10-09T09:11:41;21.83;;;3.80;;
10596;SDS011;5346;48.766;8.674;2023-10-09T09:14:35;22.27;;;4.45;;
10596;SDS011;5346;48.766;8.674;2023-10-09T09:17:06;23.10;;;4.15;;
10596;SDS011;5346;48.766;8.674;2023-10-09T09:19:48;18.05;;;4.13;;
10596;SDS011;5346;48.766;8.674;2023-10-09T09:22:26;25.10;;;4.22;;
10596;SDS011;5346;48.766;8.674;2023-10-09T09:25:01;31.83;;;5.10;;
10596;SDS011;5346;48.766;8.674;2023-10-09T09:27:44;23.90;;;4.85;;
10596;SDS011;5346;48.766;8.674;2023-10-09T09:30:26;18.60;;;4.30;;
10596;SDS011;5346;48.766;8.674;2023-10-09T09:33:20;17.33;;;4.05;;
10596;SDS011;5346;48.766;8.674;2023-10-09T09:36:16;20.52;;;3.72;;
10596;SDS011;5346;48.766;8.674;2023-10-09T09:38:44;19.92;;;4.32;;
10596;SDS011;5346;48.766;8.674;2023-10-09T09:41:23;19.15;;;5.13;;
10596;SDS011;5346;48.766;8.674;2023-10-09T09:43:56;21.77;;;4.00;;
10596;SDS011;5346;48.766;8.674;2023-10-09T09:46:34;27.42;;;4.45;;
10596;SDS011;5346;48.766;8.674;2023-10-09T09:49:04;28.02;;;4.40;;
10596;SDS011;5346;48.766;8.674;2023-10-09T09:51:47;33.80;;;4.75;;
10596;SDS011;5346;48.766;8.674;2023-10-09T09:54:15;23.77;;;4.25;;
10596;SDS011;5346;48.766;8.674;2023-10-09T09:56:53;26.38;;;4.32;;
10596;SDS011;5346;48.766;8.674;2023-10-09T09:59:29;22.38;;;4.93;;
10596;SDS011;5346;48.766;8.674;2023-10-09T10:02:02;20.05;;;4.43;;
10596;SDS011;5346;48.766;8.674;2023-10-09T10:04:52;13.18;;;3.85;;
10596;SDS011;5346;48.766;8.674;2023-10-09T10:07:29;14.65;;;3.53;;
10596;SDS011;5346;48.766;8.674;2023-10-09T10:10:36;21.42;;;4.13;;
10596;SDS011;5346;48.766;8.674;2023-10-09T10:13:06;19.73;;;4.28;;
10596;SDS011;5346;48.766;8.674;2023-10-09T10:18:31;15.45;;;4.10;;
10596;SDS011;5346;48.766;8.674;2023-10-09T10:23:51;14.05;;;4.07;;
10596;SDS011;5346;48.766;8.674;2023-10-09T10:26:20;18.50;;;4.03;;
10596;SDS011;5346;48.766;8.674;2023-10-09T10:32:06;16.17;;;4.20;;
10596;SDS011;5346;48.766;8.674;2023-10-09T10:34:53;15.23;;;4.22;;
10596;SDS011;5346;48.766;8.674;2023-10-09T10:37:34;19.30;;;4.53;;
10596;SDS011;5346;48.766;8.674;2023-10-09T10:40:26;15.18;;;3.72;;
10596;SDS011;5346;48.766;8.674;2023-10-09T10:43:18;15.65;;;3.70;;
10596;SDS011;5346;48.766;8.674;2023-10-09T10:46:22;12.65;;;3.60;;
10596;SDS011;5346;48.766;8.674;2023-10-09T10:49:06;10.00;;;3.38;;
10596;SDS011;5346;48.766;8.674;2023-10-09T10:51:52;10.68;;;3.83;;
10596;SDS011;5346;48.766;8.674;2023-10-09T10:54:48;14.85;;;4.03;;
10596;SDS011;5346;48.766;8.674;2023-10-09T10:57:42;15.85;;;3.92;;
10596;SDS011;5346;48.766;8.674;2023-10-09T11:00:31;11.63;;;3.97;;
10596;SDS011;5346;48.766;8.674;2023-10-09T11:03:32;17.33;;;3.38;;
10596;SDS011;5346;48.766;8.674;2023-10-09T11:06:11;14.30;;;4.15;;
10596;SDS011;5346;48.766;8.674;2023-10-09T11:08:49;16.02;;;3.95;;
10596;SDS011;5346;48.766;8.674;2023-10-09T11:11:31;11.85;;;3.83;;
10596;SDS011;5346;48.766;8.674;2023-10-09T11:14:14;12.90;;;4.00;;
10596;SDS011;5346;48.766;8.674;2023-10-09T11:16:50;7.95;;;3.70;;
10596;SDS011;5346;48.766;8.674;2023-10-09T11:19:25;15.55;;;4.35;;
10596;SDS011;5346;48.766;8.674;2023-10-09T11:22:02;13.90;;;3.85;;
10596;SDS011;5346;48.766;8.674;2023-10-09T11:24:51;15.00;;;3.65;;
10596;SDS011;5346;48.766;8.674;2023-10-09T11:27:45;11.90;;;4.10;;
10596;SDS011;5346;48.766;8.674;2023-10-09T11:30:17;14.48;;;4.15;;
10596;SDS011;5346;48.766;8.674;2023-10-09T11:33:06;12.98;;;4.57;;
10596;SDS011;5346;48.766;8.674;2023-10-09T11:35:54;11.30;;;3.92;;
10596;SDS011;5346;48.766;8.674;2023-10-09T11:38:38;10.57;;;4.00;;
10596;SDS011;5346;48.766;8.674;2023-10-09T11:41:13;10.50;;;3.90;;
10596;SDS011;5346;48.766;8.674;2023-10-09T11:43:57;8.98;;;4.05;;
10596;SDS011;5346;48.766;8.674;2023-10-09T11:46:31;9.02;;;3.80;;
10596;SDS011;5346;48.766;8.674;2023-10-09T11:49:24;13.45;;;3.65;;
10596;SDS011;5346;48.766;8.674;2023-10-09T11:52:16;14.60;;;4.10;;
10596;SDS011;5346;48.766;8.674;2023-10-09T11:55:03;22.15;;;4.35;;
10596;SDS011;5346;48.766;8.674;2023-10-09T11:57:40;11.10;;;3.70;;
10596;SDS011;5346;48.766;8.674;2023-10-09T12:00:08;10.82;;;3.90;;
10596;SDS011;5346;48.766;8.674;2023-10-09T12:03:06;11.98;;;4.38;;
10596;SDS011;5346;48.766;8.674;2023-10-09T12:05:47;10.25;;;4.07;;
10596;SDS011;5346;48.766;8.674;2023-10-09T12:08:23;14.43;;;3.92;;
10596;SDS011;5346;48.766;8.674;2023-10-09T12:10:59;12.18;;;4.72;;
10596;SDS011;5346;48.766;8.674;2023-10-09T12:13:35;10.13;;;4.15;;
10596;SDS011;5346;48.766;8.674;2023-10-09T12:16:15;10.07;;;4.35;;
10596;SDS011;5346;48.766;8.674;2023-10-09T12:18:43;9.50;;;3.97;;
10596;SDS011;5346;48.766;8.674;2023-10-09T12:21:30;7.72;;;4.20;;
10596;SDS011;5346;48.766;8.674;2023-10-09T12:23:57;12.88;;;4.68;;
10596;SDS011;5346;48.766;8.674;2023-10-09T12:26:38;11.20;;;4.75;;
10596;SDS011;5346;48.766;8.674;2023-10-09T12:29:11;14.13;;;4.45;;
10596;SDS011;5346;48.766;8.674;2023-10-09T12:31:45;12.40;;;4.55;;
10596;SDS011;5346;48.766;8.674;2023-10-09T12:34:20;11.45;;;4.80;;
10596;SDS011;5346;48.766;8.674;2023-10-09T12:36:49;16.27;;;4.75;;
10596;SDS011;5346;48.766;8.674;2023-10-09T12:39:23;13.88;;;4.68;;
10596;SDS011;5346;48.766;8.674;2023-10-09T12:41:54;12.98;;;5.00;;
10596;SDS011;5346;48.766;8.674;2023-10-09T12:44:35;14.57;;;5.28;;
10596;SDS011;5346;48.766;8.674;2023-10-09T12:47:08;12.35;;;4.90;;
10596;SDS011;5346;48.766;8.674;2023-10-09T12:49:46;13.70;;;5.70;;
10596;SDS011;5346;48.766;8.674;2023-10-09T12:52:15;11.68;;;5.03;;
10596;SDS011;5346;48.766;8.674;2023-10-09T12:54:44;11.18;;;4.85;;
10596;SDS011;5346;48.766;8.674;2023-10-09T12:57:21;11.55;;;5.15;;
10596;SDS011;5346;48.766;8.674;2023-10-09T12:59:52;14.85;;;5.35;;
10596;SDS011;5346;48.766;8.674;2023-10-09T13:02:27;12.25;;;5.55;;
10596;SDS011;5346;48.766;8.674;2023-10-09T13:05:02;12.70;;;4.97;;
10596;SDS011;5346;48.766;8.674;2023-10-09T13:07:42;18.13;;;5.20;;
10596;SDS011;5346;48.766;8.674;2023-10-09T13:10:17;12.65;;;5.70;;
10596;SDS011;5346;48.766;8.674;2023-10-09T13:12:52;13.27;;;5.65;;
10596;SDS011;5346;48.766;8.674;2023-10-09T13:15:30;13.35;;;5.72;;
10596;SDS011;5346;48.766;8.674;2023-10-09T13:18:17;19.40;;;6.35;;
10596;SDS011;5346;48.766;8.674;2023-10-09T13:21:01;10.73;;;5.70;;
10596;SDS011;5346;48.766;8.674;2023-10-09T13:23:36;17.40;;;5.80;;
10596;SDS011;5346;48.766;8.674;2023-10-09T13:26:20;14.80;;;5.68;;
10596;SDS011;5346;48.766;8.674;2023-10-09T13:29:06;11.82;;;5.22;;
10596;SDS011;5346;48.766;8.674;2023-10-09T13:31:44;13.82;;;5.72;;
10596;SDS011;5346;48.766;8.674;2023-10-09T13:34:17;11.15;;;5.28;;
10596;SDS011;5346;48.766;8.674;2023-10-09T13:36:54;13.57;;;5.20;;
10596;SDS011;5346;48.766;8.674;2023-10-09T13:39:25;16.35;;;5.57;;
10596;SDS011;5346;48.766;8.674;2023-10-09T13:42:00;14.77;;;5.00;;
10596;SDS011;5346;48.766;8.674;2023-10-09T13:44:41;12.32;;;4.85;;
10596;SDS011;5346;48.766;8.674;2023-10-09T13:47:09;10.88;;;4.75;;
10596;SDS011;5346;48.766;8.674;2023-10-09T13:49:52;15.50;;;5.15;;
10596;SDS011;5346;48.766;8.674;2023-10-09T13:52:27;13.57;;;5.78;;
10596;SDS011;5346;48.766;8.674;2023-10-09T13:55:03;12.73;;;5.95;;
10596;SDS011;5346;48.766;8.674;2023-10-09T13:57:51;18.80;;;5.82;;
10596;SDS011;5346;48.766;8.674;2023-10-09T14:00:24;19.30;;;5.30;;
10596;SDS011;5346;48.766;8.674;2023-10-09T14:03:23;12.88;;;5.32;;
10596;SDS011;5346;48.766;8.674;2023-10-09T14:05:51;17.75;;;5.13;;
10596;SDS011;5346;48.766;8.674;2023-10-09T14:08:43;11.45;;;5.00;;
10596;SDS011;5346;48.766;8.674;2023-10-09T14:11:19;13.38;;;5.10;;
10596;SDS011;5346;48.766;8.674;2023-10-09T14:13:56;17.55;;;5.50;;
10596;SDS011;5346;48.766;8.674;2023-10-09T14:16:39;21.73;;;6.15;;
10596;SDS011;5346;48.766;8.674;2023-10-09T14:19:18;11.65;;;5.28;;
10596;SDS011;5346;48.766;8.674;2023-10-09T14:21:47;16.02;;;6.35;;
10596;SDS011;5346;48.766;8.674;2023-10-09T14:24:24;19.10;;;5.95;;
10596;SDS011;5346;48.766;8.674;2023-10-09T14:27:01;19.75;;;6.05;;
10596;SDS011;5346;48.766;8.674;2023-10-09T14:29:40;15.27;;;4.97;;
10596;SDS011;5346;48.766;8.674;2023-10-09T14:32:16;14.20;;;5.25;;
10596;SDS011;5346;48.766;8.674;2023-10-09T14:34:50;15.27;;;5.03;;
10596;SDS011;5346;48.766;8.674;2023-10-09T14:37:20;13.98;;;5.18;;
10596;SDS011;5346;48.766;8.674;2023-10-09T14:39:55;15.18;;;5.43;;
10596;SDS011;5346;48.766;8.674;2023-10-09T14:42:23;13.68;;;4.82;;
10596;SDS011;5346;48.766;8.674;2023-10-09T14:45:02;18.77;;;5.72;;
10596;SDS011;5346;48.766;8.674;2023-10-09T14:47:41;13.25;;;5.57;;
10596;SDS011;5346;48.766;8.674;2023-10-09T14:50:22;17.95;;;5.45;;
10596;SDS011;5346;48.766;8.674;2023-10-09T14:52:57;11.27;;;5.30;;
10596;SDS011;5346;48.766;8.674;2023-10-09T14:55:34;11.35;;;4.90;;
10596;SDS011;5346;48.766;8.674;2023-10-09T14:58:08;11.63;;;4.63;;
10596;SDS011;5346;48.766;8.674;2023-10-09T15:00:44;14.52;;;5.22;;
10596;SDS011;5346;48.766;8.674;2023-10-09T15:03:17;15.60;;;5.30;;
10596;SDS011;5346;48.766;8.674;2023-10-09T15:06:01;8.93;;;4.70;;
10596;SDS011;5346;48.766;8.674;2023-10-09T15:08:28;10.95;;;4.80;;
10596;SDS011;5346;48.766;8.674;2023-10-09T15:11:08;12.13;;;4.95;;
10596;SDS011;5346;48.766;8.674;2023-10-09T15:13:38;18.92;;;4.97;;
10596;SDS011;5346;48.766;8.674;2023-10-09T15:16:12;13.98;;;5.45;;
10596;SDS011;5346;48.766;8.674;2023-10-09T15:18:48;14.50;;;4.68;;
10596;SDS011;5346;48.766;8.674;2023-10-09T15:21:25;16.40;;;4.97;;
10596;SDS011;5346;48.766;8.674;2023-10-09T15:24:00;10.18;;;4.38;;
10596;SDS011;5346;48.766;8.674;2023-10-09T15:26:35;19.95;;;4.88;;
10596;SDS011;5346;48.766;8.674;2023-10-09T15:29:13;17.38;;;5.45;;
10596;SDS011;5346;48.766;8.674;2023-10-09T15:31:43;11.25;;;5.13;;
10596;SDS011;5346;48.766;8.674;2023-10-09T15:34:19;17.10;;;5.10;;
10596;SDS011;5346;48.766;8.674;2023-10-09T15:36:48;11.73;;;4.80;;
10596;SDS011;5346;48.766;8.674;2023-10-09T15:39:22;15.77;;;4.72;;
10596;SDS011;5346;48.766;8.674;2023-10-09T15:41:51;12.55;;;5.05;;
10596;SDS011;5346;48.766;8.674;2023-10-09T15:44:38;16.50;;;5.03;;
10596;SDS011;5346;48.766;8.674;2023-10-09T15:47:05;14.25;;;4.60;;
10596;SDS011;5346;48.766;8.674;2023-10-09T15:49:42;13.57;;;4.85;;
10596;SDS011;5346;48.766;8.674;2023-10-09T15:52:10;13.52;;;4.65;;
10596;SDS011;5346;48.766;8.674;2023-10-09T15:54:40;15.55;;;5.65;;
10596;SDS011;5346;48.766;8.674;2023-10-09T15:57:17;13.15;;;4.25;;
10596;SDS011;5346;48.766;8.674;2023-10-09T15:59:45;14.05;;;5.47;;
10596;SDS011;5346;48.766;8.674;2023-10-09T16:02:19;14.25;;;4.88;;
10596;SDS011;5346;48.766;8.674;2023-10-09T16:05:02;15.95;;;5.43;;
10596;SDS011;5346;48.766;8.674;2023-10-09T16:07:32;15.38;;;5.65;;
10596;SDS011;5346;48.766;8.674;2023-10-09T16:10:06;17.35;;;5.15;;
10596;SDS011;5346;48.766;8.674;2023-10-09T16:12:42;17.90;;;5.22;;
10596;SDS011;5346;48.766;8.674;2023-10-09T16:15:10;16.83;;;5.13;;